sensor_id;sensor_type;location;lat;lon;timestamp;temperature;humidity
74657;DHT22;63185;45.642;13.764;2022-12-28T00:02:16;12.50;61.20
74657;DHT22;63185;45.642;13.764;2022-12-28T00:04:42;12.60;61.50
74657;DHT22;63185;45.642;13.764;2022-12-28T00:07:07;12.50;61.20
74657;DHT22;63185;45.642;13.764;2022-12-28T00:09:33;12.50;61.30
74657;DHT22;63185;45.642;13.764;2022-12-28T00:11:59;12.50;60.60
74657;DHT22;63185;45.642;13.764;2022-12-28T00:14:24;12.50;60.90
74657;DHT22;63185;45.642;13.764;2022-12-28T00:16:50;12.50;60.90
74657;DHT22;63185;45.642;13.764;2022-12-28T00:19:15;12.50;61.20
74657;DHT22;63185;45.642;13.764;2022-12-28T00:21:41;12.60;61.10
74657;DHT22;63185;45.642;13.764;2022-12-28T00:24:07;12.60;60.70
74657;DHT22;63185;45.642;13.764;2022-12-28T00:26:33;12.60;60.40
74657;DHT22;63185;45.642;13.764;2022-12-28T00:28:59;12.70;60.90
74657;DHT22;63185;45.642;13.764;2022-12-28T00:31:25;12.80;60.60
74657;DHT22;63185;45.642;13.764;2022-12-28T00:33:51;12.80;60.60
74657;DHT22;63185;45.642;13.764;2022-12-28T00:36:16;12.80;61.10
74657;DHT22;63185;45.642;13.764;2022-12-28T00:38:42;12.90;61.00
74657;DHT22;63185;45.642;13.764;2022-12-28T00:41:08;12.80;60.80
74657;DHT22;63185;45.642;13.764;2022-12-28T00:43:34;12.80;61.10
74657;DHT22;63185;45.642;13.764;2022-12-28T00:46:00;12.80;60.30
74657;DHT22;63185;45.642;13.764;2022-12-28T00:48:25;12.90;60.20
74657;DHT22;63185;45.642;13.764;2022-12-28T00:50:51;12.90;61.20
74657;DHT22;63185;45.642;13.764;2022-12-28T00:53:17;12.90;64.80
74657;DHT22;63185;45.642;13.764;2022-12-28T00:55:42;12.70;66.80
74657;DHT22;63185;45.642;13.764;2022-12-28T00:58:08;12.60;68.00
74657;DHT22;63185;45.642;13.764;2022-12-28T01:00:34;12.50;68.30
74657;DHT22;63185;45.642;13.764;2022-12-28T01:03:00;12.40;68.90
74657;DHT22;63185;45.642;13.764;2022-12-28T01:05:26;12.30;69.70
74657;DHT22;63185;45.642;13.764;2022-12-28T01:07:51;12.30;70.60
74657;DHT22;63185;45.642;13.764;2022-12-28T01:10:17;12.30;70.60
74657;DHT22;63185;45.642;13.764;2022-12-28T01:12:43;12.30;71.10
74657;DHT22;63185;45.642;13.764;2022-12-28T01:15:09;12.20;71.10
74657;DHT22;63185;45.642;13.764;2022-12-28T01:17:35;12.20;71.00
74657;DHT22;63185;45.642;13.764;2022-12-28T01:20:01;12.20;70.90
74657;DHT22;63185;45.642;13.764;2022-12-28T01:22:27;12.20;70.80
74657;DHT22;63185;45.642;13.764;2022-12-28T01:24:52;12.10;70.30
74657;DHT22;63185;45.642;13.764;2022-12-28T01:27:18;12.10;70.10
74657;DHT22;63185;45.642;13.764;2022-12-28T01:29:44;12.00;69.70
74657;DHT22;63185;45.642;13.764;2022-12-28T01:32:09;12.10;70.00
74657;DHT22;63185;45.642;13.764;2022-12-28T01:34:35;12.10;69.50
74657;DHT22;63185;45.642;13.764;2022-12-28T01:37:00;12.00;69.70
74657;DHT22;63185;45.642;13.764;2022-12-28T01:39:26;12.10;69.60
74657;DHT22;63185;45.642;13.764;2022-12-28T01:41:51;12.10;69.70
74657;DHT22;63185;45.642;13.764;2022-12-28T01:46:50;12.10;69.50
74657;DHT22;63185;45.642;13.764;2022-12-28T01:54:29;12.10;69.70
74657;DHT22;63185;45.642;13.764;2022-12-28T01:56:56;12.10;68.60
74657;DHT22;63185;45.642;13.764;2022-12-28T01:59:23;12.10;68.70
74657;DHT22;63185;45.642;13.764;2022-12-28T02:01:51;12.10;68.00
74657;DHT22;63185;45.642;13.764;2022-12-28T02:04:16;12.10;67.60
74657;DHT22;63185;45.642;13.764;2022-12-28T02:06:42;12.10;67.90
74657;DHT22;63185;45.642;13.764;2022-12-28T02:09:13;12.10;67.50
74657;DHT22;63185;45.642;13.764;2022-12-28T02:11:41;12.10;67.30
74657;DHT22;63185;45.642;13.764;2022-12-28T02:14:07;12.10;66.70
74657;DHT22;63185;45.642;13.764;2022-12-28T02:16:33;12.10;66.50
74657;DHT22;63185;45.642;13.764;2022-12-28T02:18:59;12.10;66.90
74657;DHT22;63185;45.642;13.764;2022-12-28T02:34:13;12.00;67.40
74657;DHT22;63185;45.642;13.764;2022-12-28T02:36:38;12.00;67.00
74657;DHT22;63185;45.642;13.764;2022-12-28T02:39:07;11.90;67.20
74657;DHT22;63185;45.642;13.764;2022-12-28T02:41:34;11.90;66.10
74657;DHT22;63185;45.642;13.764;2022-12-28T02:44:02;11.90;66.20
74657;DHT22;63185;45.642;13.764;2022-12-28T02:46:28;11.90;66.10
74657;DHT22;63185;45.642;13.764;2022-12-28T02:49:17;11.80;66.50
74657;DHT22;63185;45.642;13.764;2022-12-28T02:59:49;11.80;65.00
74657;DHT22;63185;45.642;13.764;2022-12-28T03:02:28;11.80;65.10
74657;DHT22;63185;45.642;13.764;2022-12-28T03:11:03;11.90;65.00
74657;DHT22;63185;45.642;13.764;2022-12-28T03:16:11;12.00;64.30
74657;DHT22;63185;45.642;13.764;2022-12-28T03:18:37;12.00;64.00
74657;DHT22;63185;45.642;13.764;2022-12-28T03:21:22;12.00;63.70
74657;DHT22;63185;45.642;13.764;2022-12-28T03:24:07;12.00;64.20
74657;DHT22;63185;45.642;13.764;2022-12-28T03:26:53;12.00;64.30
74657;DHT22;63185;45.642;13.764;2022-12-28T03:29:38;12.10;63.20
74657;DHT22;63185;45.642;13.764;2022-12-28T03:32:23;12.10;63.60
74657;DHT22;63185;45.642;13.764;2022-12-28T03:34:49;12.10;62.80
74657;DHT22;63185;45.642;13.764;2022-12-28T03:45:04;12.20;63.40
74657;DHT22;63185;45.642;13.764;2022-12-28T03:47:30;12.20;63.40
74657;DHT22;63185;45.642;13.764;2022-12-28T03:49:56;12.10;62.60
74657;DHT22;63185;45.642;13.764;2022-12-28T03:52:22;12.10;62.40
74657;DHT22;63185;45.642;13.764;2022-12-28T03:54:48;12.10;61.70
74657;DHT22;63185;45.642;13.764;2022-12-28T03:57:13;12.00;60.40
74657;DHT22;63185;45.642;13.764;2022-12-28T03:59:41;12.10;60.40
74657;DHT22;63185;45.642;13.764;2022-12-28T04:02:06;12.10;59.90
74657;DHT22;63185;45.642;13.764;2022-12-28T04:04:32;12.10;59.60
74657;DHT22;63185;45.642;13.764;2022-12-28T04:06:57;12.10;59.80
74657;DHT22;63185;45.642;13.764;2022-12-28T04:09:23;12.10;59.10
74657;DHT22;63185;45.642;13.764;2022-12-28T04:11:48;12.10;59.80
74657;DHT22;63185;45.642;13.764;2022-12-28T04:14:14;12.10;59.70
74657;DHT22;63185;45.642;13.764;2022-12-28T04:16:40;12.10;59.80
74657;DHT22;63185;45.642;13.764;2022-12-28T04:19:05;12.10;59.10
74657;DHT22;63185;45.642;13.764;2022-12-28T04:21:31;12.10;59.70
74657;DHT22;63185;45.642;13.764;2022-12-28T04:23:56;12.10;59.80
74657;DHT22;63185;45.642;13.764;2022-12-28T04:26:22;12.20;59.80
74657;DHT22;63185;45.642;13.764;2022-12-28T04:28:47;12.20;59.60
74657;DHT22;63185;45.642;13.764;2022-12-28T04:31:13;12.10;59.20
74657;DHT22;63185;45.642;13.764;2022-12-28T04:33:38;12.10;58.20
74657;DHT22;63185;45.642;13.764;2022-12-28T04:36:05;12.10;58.20
74657;DHT22;63185;45.642;13.764;2022-12-28T04:38:31;12.20;59.20
74657;DHT22;63185;45.642;13.764;2022-12-28T04:40:57;12.20;58.60
74657;DHT22;63185;45.642;13.764;2022-12-28T04:43:22;12.20;58.20
74657;DHT22;63185;45.642;13.764;2022-12-28T04:45:57;12.20;58.50
74657;DHT22;63185;45.642;13.764;2022-12-28T04:48:23;12.20;58.90
74657;DHT22;63185;45.642;13.764;2022-12-28T04:50:49;12.30;59.10
74657;DHT22;63185;45.642;13.764;2022-12-28T04:53:14;12.20;58.80
74657;DHT22;63185;45.642;13.764;2022-12-28T04:55:40;12.30;58.90
74657;DHT22;63185;45.642;13.764;2022-12-28T04:58:05;12.30;59.20
74657;DHT22;63185;45.642;13.764;2022-12-28T05:00:31;12.20;58.50
74657;DHT22;63185;45.642;13.764;2022-12-28T05:02:57;12.30;57.90
74657;DHT22;63185;45.642;13.764;2022-12-28T05:05:23;12.30;57.20
74657;DHT22;63185;45.642;13.764;2022-12-28T05:07:48;12.30;56.90
74657;DHT22;63185;45.642;13.764;2022-12-28T05:10:14;12.30;57.30
74657;DHT22;63185;45.642;13.764;2022-12-28T05:12:39;12.30;57.00
74657;DHT22;63185;45.642;13.764;2022-12-28T05:15:05;12.40;57.60
74657;DHT22;63185;45.642;13.764;2022-12-28T05:17:31;12.30;57.20
74657;DHT22;63185;45.642;13.764;2022-12-28T05:19:57;12.30;57.20
74657;DHT22;63185;45.642;13.764;2022-12-28T05:22:22;12.30;57.60
74657;DHT22;63185;45.642;13.764;2022-12-28T05:24:48;12.40;57.40
74657;DHT22;63185;45.642;13.764;2022-12-28T05:27:13;12.40;57.50
74657;DHT22;63185;45.642;13.764;2022-12-28T05:29:39;12.40;57.40
74657;DHT22;63185;45.642;13.764;2022-12-28T05:32:04;12.40;57.30
74657;DHT22;63185;45.642;13.764;2022-12-28T05:34:30;12.40;56.90
74657;DHT22;63185;45.642;13.764;2022-12-28T05:36:55;12.40;56.90
74657;DHT22;63185;45.642;13.764;2022-12-28T05:39:21;12.40;56.70
74657;DHT22;63185;45.642;13.764;2022-12-28T05:41:46;12.40;56.50
74657;DHT22;63185;45.642;13.764;2022-12-28T05:44:12;12.40;57.20
74657;DHT22;63185;45.642;13.764;2022-12-28T05:46:37;12.30;57.20
74657;DHT22;63185;45.642;13.764;2022-12-28T05:49:03;12.30;57.40
74657;DHT22;63185;45.642;13.764;2022-12-28T05:51:31;12.20;57.60
74657;DHT22;63185;45.642;13.764;2022-12-28T05:53:58;12.20;57.70
74657;DHT22;63185;45.642;13.764;2022-12-28T05:56:27;12.20;58.20
74657;DHT22;63185;45.642;13.764;2022-12-28T05:58:54;12.20;58.90
74657;DHT22;63185;45.642;13.764;2022-12-28T06:01:21;12.10;58.70
74657;DHT22;63185;45.642;13.764;2022-12-28T06:03:50;12.10;58.70
74657;DHT22;63185;45.642;13.764;2022-12-28T06:06:17;12.00;59.30
74657;DHT22;63185;45.642;13.764;2022-12-28T06:08:43;12.00;58.80
74657;DHT22;63185;45.642;13.764;2022-12-28T06:11:11;11.90;59.00
74657;DHT22;63185;45.642;13.764;2022-12-28T06:13:37;11.90;59.30
74657;DHT22;63185;45.642;13.764;2022-12-28T06:16:04;11.80;59.40
74657;DHT22;63185;45.642;13.764;2022-12-28T06:18:30;11.90;59.50
74657;DHT22;63185;45.642;13.764;2022-12-28T06:21:00;11.90;59.30
74657;DHT22;63185;45.642;13.764;2022-12-28T06:23:25;11.80;59.70
74657;DHT22;63185;45.642;13.764;2022-12-28T06:25:51;11.80;59.80
74657;DHT22;63185;45.642;13.764;2022-12-28T06:28:16;11.80;60.00
74657;DHT22;63185;45.642;13.764;2022-12-28T06:30:42;11.80;59.70
74657;DHT22;63185;45.642;13.764;2022-12-28T06:33:07;11.90;59.00
74657;DHT22;63185;45.642;13.764;2022-12-28T06:35:33;12.00;59.00
74657;DHT22;63185;45.642;13.764;2022-12-28T06:37:58;12.00;58.60
74657;DHT22;63185;45.642;13.764;2022-12-28T06:40:24;12.00;58.90
74657;DHT22;63185;45.642;13.764;2022-12-28T06:42:49;12.00;59.20
74657;DHT22;63185;45.642;13.764;2022-12-28T06:45:15;12.10;58.80
74657;DHT22;63185;45.642;13.764;2022-12-28T06:47:41;12.10;59.10
74657;DHT22;63185;45.642;13.764;2022-12-28T06:50:06;12.20;59.20
74657;DHT22;63185;45.642;13.764;2022-12-28T06:52:32;12.20;58.80
74657;DHT22;63185;45.642;13.764;2022-12-28T06:54:57;12.20;58.20
74657;DHT22;63185;45.642;13.764;2022-12-28T06:57:23;12.30;58.30
74657;DHT22;63185;45.642;13.764;2022-12-28T06:59:48;12.30;58.70
74657;DHT22;63185;45.642;13.764;2022-12-28T07:02:14;12.40;59.30
74657;DHT22;63185;45.642;13.764;2022-12-28T07:04:39;12.40;58.90
74657;DHT22;63185;45.642;13.764;2022-12-28T07:07:05;12.40;58.80
74657;DHT22;63185;45.642;13.764;2022-12-28T07:09:32;12.50;58.80
74657;DHT22;63185;45.642;13.764;2022-12-28T07:11:58;12.50;58.90
74657;DHT22;63185;45.642;13.764;2022-12-28T07:14:23;12.50;58.80
74657;DHT22;63185;45.642;13.764;2022-12-28T07:16:49;12.50;58.50
74657;DHT22;63185;45.642;13.764;2022-12-28T07:19:14;12.50;58.80
74657;DHT22;63185;45.642;13.764;2022-12-28T07:21:40;12.60;58.30
74657;DHT22;63185;45.642;13.764;2022-12-28T07:24:06;12.50;58.50
74657;DHT22;63185;45.642;13.764;2022-12-28T07:26:32;12.50;58.30
74657;DHT22;63185;45.642;13.764;2022-12-28T07:28:58;12.50;58.90
74657;DHT22;63185;45.642;13.764;2022-12-28T07:31:26;12.50;58.70
74657;DHT22;63185;45.642;13.764;2022-12-28T07:33:52;12.40;59.00
74657;DHT22;63185;45.642;13.764;2022-12-28T07:36:19;12.40;58.90
74657;DHT22;63185;45.642;13.764;2022-12-28T07:38:44;12.40;58.90
74657;DHT22;63185;45.642;13.764;2022-12-28T07:41:14;12.40;59.30
74657;DHT22;63185;45.642;13.764;2022-12-28T07:43:40;12.40;59.00
74657;DHT22;63185;45.642;13.764;2022-12-28T07:46:07;12.40;59.00
74657;DHT22;63185;45.642;13.764;2022-12-28T07:48:34;12.40;59.30
74657;DHT22;63185;45.642;13.764;2022-12-28T07:51:10;12.50;59.70
74657;DHT22;63185;45.642;13.764;2022-12-28T07:53:37;12.50;59.60
74657;DHT22;63185;45.642;13.764;2022-12-28T07:56:02;12.60;59.80
74657;DHT22;63185;45.642;13.764;2022-12-28T07:58:28;12.60;59.60
74657;DHT22;63185;45.642;13.764;2022-12-28T08:00:54;12.70;59.10
74657;DHT22;63185;45.642;13.764;2022-12-28T08:03:19;12.80;59.10
74657;DHT22;63185;45.642;13.764;2022-12-28T08:05:45;12.90;59.30
74657;DHT22;63185;45.642;13.764;2022-12-28T08:08:10;12.90;58.90
74657;DHT22;63185;45.642;13.764;2022-12-28T08:10:36;13.00;59.20
74657;DHT22;63185;45.642;13.764;2022-12-28T08:13:02;13.10;59.30
74657;DHT22;63185;45.642;13.764;2022-12-28T08:15:28;13.10;59.10
74657;DHT22;63185;45.642;13.764;2022-12-28T08:17:54;13.10;58.80
74657;DHT22;63185;45.642;13.764;2022-12-28T08:20:20;13.20;58.90
74657;DHT22;63185;45.642;13.764;2022-12-28T08:22:45;13.20;58.30
74657;DHT22;63185;45.642;13.764;2022-12-28T08:25:11;13.20;58.70
74657;DHT22;63185;45.642;13.764;2022-12-28T08:27:37;13.20;58.30
74657;DHT22;63185;45.642;13.764;2022-12-28T08:30:03;13.20;58.30
74657;DHT22;63185;45.642;13.764;2022-12-28T08:32:28;13.30;58.10
74657;DHT22;63185;45.642;13.764;2022-12-28T08:34:54;13.40;58.20
74657;DHT22;63185;45.642;13.764;2022-12-28T08:37:19;13.50;58.30
74657;DHT22;63185;45.642;13.764;2022-12-28T08:39:45;13.60;58.60
74657;DHT22;63185;45.642;13.764;2022-12-28T08:42:10;13.60;59.10
74657;DHT22;63185;45.642;13.764;2022-12-28T08:44:36;13.70;58.40
74657;DHT22;63185;45.642;13.764;2022-12-28T08:47:01;13.70;57.80
74657;DHT22;63185;45.642;13.764;2022-12-28T08:49:27;13.80;58.00
74657;DHT22;63185;45.642;13.764;2022-12-28T08:51:53;13.80;58.00
74657;DHT22;63185;45.642;13.764;2022-12-28T08:54:18;13.70;57.50
74657;DHT22;63185;45.642;13.764;2022-12-28T08:56:44;13.70;58.20
74657;DHT22;63185;45.642;13.764;2022-12-28T08:59:12;13.80;58.80
74657;DHT22;63185;45.642;13.764;2022-12-28T09:01:38;13.80;58.90
74657;DHT22;63185;45.642;13.764;2022-12-28T09:04:04;13.90;59.00
74657;DHT22;63185;45.642;13.764;2022-12-28T09:06:31;13.90;59.10
74657;DHT22;63185;45.642;13.764;2022-12-28T09:08:57;13.90;59.10
74657;DHT22;63185;45.642;13.764;2022-12-28T09:11:23;13.80;59.30
74657;DHT22;63185;45.642;13.764;2022-12-28T09:13:49;13.80;59.50
74657;DHT22;63185;45.642;13.764;2022-12-28T09:16:15;13.80;59.40
74657;DHT22;63185;45.642;13.764;2022-12-28T09:18:42;13.80;59.60
74657;DHT22;63185;45.642;13.764;2022-12-28T09:21:09;13.90;59.50
74657;DHT22;63185;45.642;13.764;2022-12-28T09:23:35;13.90;59.30
74657;DHT22;63185;45.642;13.764;2022-12-28T09:28:29;13.90;59.00
74657;DHT22;63185;45.642;13.764;2022-12-28T09:30:55;14.00;59.10
74657;DHT22;63185;45.642;13.764;2022-12-28T09:33:20;13.90;58.90
74657;DHT22;63185;45.642;13.764;2022-12-28T09:36:05;14.00;59.10
74657;DHT22;63185;45.642;13.764;2022-12-28T09:38:30;14.00;58.90
74657;DHT22;63185;45.642;13.764;2022-12-28T09:40:56;14.00;59.10
74657;DHT22;63185;45.642;13.764;2022-12-28T09:43:22;14.10;59.10
74657;DHT22;63185;45.642;13.764;2022-12-28T09:45:48;14.10;59.30
74657;DHT22;63185;45.642;13.764;2022-12-28T09:48:15;14.10;59.00
74657;DHT22;63185;45.642;13.764;2022-12-28T09:50:42;14.20;59.20
74657;DHT22;63185;45.642;13.764;2022-12-28T09:58:36;14.50;57.90
74657;DHT22;63185;45.642;13.764;2022-12-28T10:01:03;14.60;57.00
74657;DHT22;63185;45.642;13.764;2022-12-28T10:03:35;14.60;57.00
74657;DHT22;63185;45.642;13.764;2022-12-28T10:06:01;14.70;57.20
74657;DHT22;63185;45.642;13.764;2022-12-28T10:08:27;14.80;57.50
74657;DHT22;63185;45.642;13.764;2022-12-28T10:10:54;14.90;57.50
74657;DHT22;63185;45.642;13.764;2022-12-28T10:13:25;15.00;57.30
74657;DHT22;63185;45.642;13.764;2022-12-28T10:15:51;15.10;56.80
74657;DHT22;63185;45.642;13.764;2022-12-28T10:18:18;15.20;57.10
74657;DHT22;63185;45.642;13.764;2022-12-28T10:20:45;15.20;57.00
74657;DHT22;63185;45.642;13.764;2022-12-28T10:23:12;15.20;57.30
74657;DHT22;63185;45.642;13.764;2022-12-28T10:25:38;15.30;57.30
74657;DHT22;63185;45.642;13.764;2022-12-28T10:28:05;15.40;57.00
74657;DHT22;63185;45.642;13.764;2022-12-28T10:30:31;15.50;57.20
74657;DHT22;63185;45.642;13.764;2022-12-28T10:32:57;15.60;56.60
74657;DHT22;63185;45.642;13.764;2022-12-28T10:37:54;15.50;56.90
74657;DHT22;63185;45.642;13.764;2022-12-28T10:40:24;15.50;56.90
74657;DHT22;63185;45.642;13.764;2022-12-28T10:42:51;15.50;57.00
74657;DHT22;63185;45.642;13.764;2022-12-28T10:45:20;15.40;56.40
74657;DHT22;63185;45.642;13.764;2022-12-28T10:47:50;15.50;57.00
74657;DHT22;63185;45.642;13.764;2022-12-28T10:53:00;15.50;56.10
74657;DHT22;63185;45.642;13.764;2022-12-28T10:55:26;15.60;56.10
74657;DHT22;63185;45.642;13.764;2022-12-28T10:57:52;15.60;56.50
74657;DHT22;63185;45.642;13.764;2022-12-28T11:00:18;15.60;57.20
74657;DHT22;63185;45.642;13.764;2022-12-28T11:02:44;15.70;56.40
74657;DHT22;63185;45.642;13.764;2022-12-28T11:05:31;15.80;55.20
74657;DHT22;63185;45.642;13.764;2022-12-28T11:08:03;15.80;54.80
74657;DHT22;63185;45.642;13.764;2022-12-28T11:10:30;15.80;55.00
74657;DHT22;63185;45.642;13.764;2022-12-28T11:12:57;15.90;53.90
74657;DHT22;63185;45.642;13.764;2022-12-28T11:15:24;15.90;54.30
74657;DHT22;63185;45.642;13.764;2022-12-28T11:17:52;15.90;53.80
74657;DHT22;63185;45.642;13.764;2022-12-28T11:20:20;15.90;54.50
74657;DHT22;63185;45.642;13.764;2022-12-28T11:22:47;15.90;54.70
74657;DHT22;63185;45.642;13.764;2022-12-28T11:25:16;15.90;55.00
74657;DHT22;63185;45.642;13.764;2022-12-28T11:27:42;15.80;54.60
74657;DHT22;63185;45.642;13.764;2022-12-28T11:30:12;16.00;54.30
74657;DHT22;63185;45.642;13.764;2022-12-28T11:32:40;16.00;54.80
74657;DHT22;63185;45.642;13.764;2022-12-28T11:35:07;16.00;55.00
74657;DHT22;63185;45.642;13.764;2022-12-28T11:37:47;16.10;54.90
74657;DHT22;63185;45.642;13.764;2022-12-28T11:40:30;16.20;54.90
74657;DHT22;63185;45.642;13.764;2022-12-28T11:42:58;16.30;54.30
74657;DHT22;63185;45.642;13.764;2022-12-28T11:56:09;15.90;57.00
74657;DHT22;63185;45.642;13.764;2022-12-28T12:07:04;15.50;58.40
74657;DHT22;63185;45.642;13.764;2022-12-28T12:16:50;15.30;60.20
74657;DHT22;63185;45.642;13.764;2022-12-28T12:19:19;15.20;60.50
74657;DHT22;63185;45.642;13.764;2022-12-28T12:21:46;15.20;61.10
74657;DHT22;63185;45.642;13.764;2022-12-28T12:24:53;15.20;61.10
74657;DHT22;63185;45.642;13.764;2022-12-28T12:27:18;15.10;61.70
74657;DHT22;63185;45.642;13.764;2022-12-28T12:29:51;15.10;62.10
74657;DHT22;63185;45.642;13.764;2022-12-28T12:32:21;15.10;62.60
74657;DHT22;63185;45.642;13.764;2022-12-28T12:34:52;15.10;62.90
74657;DHT22;63185;45.642;13.764;2022-12-28T12:37:27;15.10;62.80
74657;DHT22;63185;45.642;13.764;2022-12-28T12:40:02;14.90;63.80
74657;DHT22;63185;45.642;13.764;2022-12-28T12:42:56;15.00;63.70
74657;DHT22;63185;45.642;13.764;2022-12-28T12:46:02;15.00;63.60
74657;DHT22;63185;45.642;13.764;2022-12-28T12:50:40;15.00;63.60
74657;DHT22;63185;45.642;13.764;2022-12-28T12:53:26;14.90;64.40
74657;DHT22;63185;45.642;13.764;2022-12-28T12:56:11;14.90;65.10
74657;DHT22;63185;45.642;13.764;2022-12-28T13:03:44;14.70;67.70
74657;DHT22;63185;45.642;13.764;2022-12-28T13:06:12;14.60;67.80
74657;DHT22;63185;45.642;13.764;2022-12-28T13:08:40;14.60;68.00
74657;DHT22;63185;45.642;13.764;2022-12-28T13:11:09;14.60;68.80
74657;DHT22;63185;45.642;13.764;2022-12-28T13:13:36;14.70;69.00
74657;DHT22;63185;45.642;13.764;2022-12-28T13:16:04;14.60;69.10
74657;DHT22;63185;45.642;13.764;2022-12-28T13:18:32;14.60;68.90
74657;DHT22;63185;45.642;13.764;2022-12-28T13:20:58;14.70;69.40
74657;DHT22;63185;45.642;13.764;2022-12-28T13:23:24;14.60;69.60
74657;DHT22;63185;45.642;13.764;2022-12-28T13:25:51;14.60;69.80
74657;DHT22;63185;45.642;13.764;2022-12-28T13:28:19;14.60;69.90
74657;DHT22;63185;45.642;13.764;2022-12-28T13:30:55;14.60;69.90
74657;DHT22;63185;45.642;13.764;2022-12-28T13:33:21;14.50;70.30
74657;DHT22;63185;45.642;13.764;2022-12-28T13:35:47;14.60;70.60
74657;DHT22;63185;45.642;13.764;2022-12-28T13:38:14;14.60;70.40
74657;DHT22;63185;45.642;13.764;2022-12-28T13:40:40;14.80;69.90
74657;DHT22;63185;45.642;13.764;2022-12-28T13:45:38;14.90;69.60
74657;DHT22;63185;45.642;13.764;2022-12-28T13:48:03;14.80;69.80
74657;DHT22;63185;45.642;13.764;2022-12-28T13:50:30;14.80;70.20
74657;DHT22;63185;45.642;13.764;2022-12-28T13:55:35;14.90;70.00
74657;DHT22;63185;45.642;13.764;2022-12-28T13:58:06;14.80;70.20
74657;DHT22;63185;45.642;13.764;2022-12-28T14:00:33;14.70;70.30
74657;DHT22;63185;45.642;13.764;2022-12-28T14:03:00;14.70;70.80
74657;DHT22;63185;45.642;13.764;2022-12-28T14:05:27;14.60;70.90
74657;DHT22;63185;45.642;13.764;2022-12-28T14:07:53;14.60;71.00
74657;DHT22;63185;45.642;13.764;2022-12-28T14:10:19;14.60;71.40
74657;DHT22;63185;45.642;13.764;2022-12-28T14:12:45;14.50;71.50
74657;DHT22;63185;45.642;13.764;2022-12-28T14:15:11;14.50;71.60
74657;DHT22;63185;45.642;13.764;2022-12-28T14:17:37;14.60;71.80
74657;DHT22;63185;45.642;13.764;2022-12-28T14:20:04;14.50;71.80
74657;DHT22;63185;45.642;13.764;2022-12-28T14:22:33;14.40;72.10
74657;DHT22;63185;45.642;13.764;2022-12-28T14:27:28;14.30;72.40
74657;DHT22;63185;45.642;13.764;2022-12-28T14:29:54;14.30;72.50
74657;DHT22;63185;45.642;13.764;2022-12-28T14:32:20;14.20;72.70
74657;DHT22;63185;45.642;13.764;2022-12-28T14:34:46;14.00;73.10
74657;DHT22;63185;45.642;13.764;2022-12-28T14:37:21;13.90;73.50
74657;DHT22;63185;45.642;13.764;2022-12-28T14:39:48;13.90;73.20
74657;DHT22;63185;45.642;13.764;2022-12-28T14:42:23;13.90;73.20
74657;DHT22;63185;45.642;13.764;2022-12-28T14:44:49;14.00;73.00
74657;DHT22;63185;45.642;13.764;2022-12-28T14:50:17;13.90;72.80
74657;DHT22;63185;45.642;13.764;2022-12-28T14:52:48;13.90;73.00
74657;DHT22;63185;45.642;13.764;2022-12-28T14:55:22;13.80;73.00
74657;DHT22;63185;45.642;13.764;2022-12-28T14:57:48;13.70;73.20
74657;DHT22;63185;45.642;13.764;2022-12-28T15:00:52;13.70;73.20
74657;DHT22;63185;45.642;13.764;2022-12-28T15:03:17;13.70;73.10
74657;DHT22;63185;45.642;13.764;2022-12-28T15:06:05;13.60;73.10
74657;DHT22;63185;45.642;13.764;2022-12-28T15:08:29;13.60;73.20
74657;DHT22;63185;45.642;13.764;2022-12-28T15:10:58;13.70;72.50
74657;DHT22;63185;45.642;13.764;2022-12-28T15:13:24;13.60;72.80
74657;DHT22;63185;45.642;13.764;2022-12-28T15:15:54;13.60;73.00
74657;DHT22;63185;45.642;13.764;2022-12-28T15:18:20;13.60;72.70
74657;DHT22;63185;45.642;13.764;2022-12-28T15:20:45;13.70;72.60
74657;DHT22;63185;45.642;13.764;2022-12-28T15:23:11;13.70;72.30
74657;DHT22;63185;45.642;13.764;2022-12-28T15:25:36;13.60;72.60
74657;DHT22;63185;45.642;13.764;2022-12-28T15:28:02;13.60;72.50
74657;DHT22;63185;45.642;13.764;2022-12-28T15:30:28;13.70;72.20
74657;DHT22;63185;45.642;13.764;2022-12-28T15:32:56;13.70;71.90
74657;DHT22;63185;45.642;13.764;2022-12-28T15:35:22;13.80;71.80
74657;DHT22;63185;45.642;13.764;2022-12-28T15:37:48;13.80;71.20
74657;DHT22;63185;45.642;13.764;2022-12-28T15:40:13;13.80;71.30
74657;DHT22;63185;45.642;13.764;2022-12-28T15:42:42;13.70;71.40
74657;DHT22;63185;45.642;13.764;2022-12-28T15:45:07;13.70;71.80
74657;DHT22;63185;45.642;13.764;2022-12-28T15:47:33;13.70;71.70
74657;DHT22;63185;45.642;13.764;2022-12-28T15:49:59;13.70;71.70
74657;DHT22;63185;45.642;13.764;2022-12-28T15:52:27;13.70;71.80
74657;DHT22;63185;45.642;13.764;2022-12-28T15:54:53;13.70;72.00
74657;DHT22;63185;45.642;13.764;2022-12-28T15:57:19;13.70;72.20
74657;DHT22;63185;45.642;13.764;2022-12-28T15:59:44;13.70;72.20
74657;DHT22;63185;45.642;13.764;2022-12-28T16:02:10;13.70;71.90
74657;DHT22;63185;45.642;13.764;2022-12-28T16:04:35;13.70;71.80
74657;DHT22;63185;45.642;13.764;2022-12-28T16:07:01;13.70;71.90
74657;DHT22;63185;45.642;13.764;2022-12-28T16:09:26;13.70;71.80
74657;DHT22;63185;45.642;13.764;2022-12-28T16:11:52;13.70;71.90
74657;DHT22;63185;45.642;13.764;2022-12-28T16:14:18;13.70;71.70
74657;DHT22;63185;45.642;13.764;2022-12-28T16:16:43;13.70;71.60
74657;DHT22;63185;45.642;13.764;2022-12-28T16:19:11;13.70;71.50
74657;DHT22;63185;45.642;13.764;2022-12-28T16:21:37;13.60;71.40
74657;DHT22;63185;45.642;13.764;2022-12-28T16:24:02;13.60;71.60
74657;DHT22;63185;45.642;13.764;2022-12-28T16:26:28;13.60;72.00
74657;DHT22;63185;45.642;13.764;2022-12-28T16:28:54;13.60;71.80
74657;DHT22;63185;45.642;13.764;2022-12-28T16:33:46;13.60;71.50
74657;DHT22;63185;45.642;13.764;2022-12-28T16:36:12;13.70;71.30
74657;DHT22;63185;45.642;13.764;2022-12-28T16:38:40;13.70;71.10
74657;DHT22;63185;45.642;13.764;2022-12-28T16:41:06;13.60;71.30
74657;DHT22;63185;45.642;13.764;2022-12-28T16:43:32;13.60;71.30
74657;DHT22;63185;45.642;13.764;2022-12-28T16:45:59;13.60;71.50
74657;DHT22;63185;45.642;13.764;2022-12-28T16:48:29;13.60;71.60
74657;DHT22;63185;45.642;13.764;2022-12-28T16:50:57;13.60;71.70
74657;DHT22;63185;45.642;13.764;2022-12-28T16:53:23;13.70;71.50
74657;DHT22;63185;45.642;13.764;2022-12-28T16:55:49;13.60;71.70
74657;DHT22;63185;45.642;13.764;2022-12-28T16:58:15;13.60;71.80
74657;DHT22;63185;45.642;13.764;2022-12-28T17:00:41;13.60;71.80
74657;DHT22;63185;45.642;13.764;2022-12-28T17:03:07;13.60;71.70